Time;durP1;ratioP1;P1;durP2;ratioP2;P2;SDS_P1;SDS_P2;PMS_P1;PMS_P2;Temp;Humidity;BMP_temperature;BMP_pressure;BME280_temperature;BME280_humidity;BME280_pressure;Samples;Min_cycle;Max_cycle;Signal;HPM_P1;HPM_P2
2021/06/03 00:00:43;;;;;;;;;;;;;;;18.52;68.76;101188.75;5111280;28;1910;-46
2021/06/03 00:03:17;;;;;;;;;;;;;;;18.53;69.35;101188.63;5115262;28;1371;-45
2021/06/03 00:05:48;;;;;;;;;;;;;;;18.50;69.18;101164.75;5099177;28;1114;-45
2021/06/03 00:08:17;;;;;;;;;;;;;;;18.49;68.94;101171.97;5113347;28;1854;-45
2021/06/03 00:10:46;;;;;;;;;;;;;;;18.49;68.80;101168.44;5111137;28;1932;-45
2021/06/03 00:13:14;;;;;;;;;;;;;;;18.48;69.00;101174.75;5113302;28;1843;-45
2021/06/03 00:15:43;;;;;;;;;;;;;;;18.45;68.73;101165.16;5099263;28;1598;-45
2021/06/03 00:18:13;;;;;;;;;;;;;;;18.46;68.59;101172.22;5111666;27;1569;-45
2021/06/03 00:20:40;;;;;;;;;;;;;;;18.45;68.63;101183.88;5106289;28;1910;-45
2021/06/03 00:23:07;;;;;;;;;;;;;;;18.43;68.48;101183.16;5101414;28;1860;-45
2021/06/03 00:25:34;;;;;;;;;;;;;;;18.46;68.56;101198.13;5099092;27;1676;-45
2021/06/03 00:28:00;;;;;;;;;;;;;;;18.45;68.61;101193.75;5101716;27;1868;-45
2021/06/03 00:30:28;;;;;;;;;;;;;;;18.46;68.61;101187.41;5106150;28;1692;-45
2021/06/03 00:32:55;;;;;;;;;;;;;;;18.46;68.74;101193.66;5116648;27;1661;-45
2021/06/03 00:35:21;;;;;;;;;;;;;;;18.42;68.66;101183.28;5115166;28;1018;-45
2021/06/03 00:37:49;;;;;;;;;;;;;;;18.42;68.66;101169.88;5115644;27;1772;-45
2021/06/03 00:40:15;;;;;;;;;;;;;;;18.39;68.99;101180.84;5104433;28;1905;-45
2021/06/03 00:42:49;;;;;;;;;;;;;;;18.39;68.84;101181.69;5110262;28;1725;-45
2021/06/03 00:45:19;;;;;;;;;;;;;;;18.38;68.49;101187.16;5105621;28;1621;-46
2021/06/03 00:48:03;;;;;;;;;;;;;;;18.37;68.02;101189.00;5106687;28;1631;-45
2021/06/03 00:50:37;;;;;;;;;;;;;;;18.37;68.23;101180.13;5103346;28;1143;-45
2021/06/03 00:53:17;;;;;;;;;;;;;;;18.41;67.98;101195.81;5096000;28;1845;-45
2021/06/03 00:55:47;;;;;;;;;;;;;;;18.36;68.02;101181.94;5105287;28;1852;-45
2021/06/03 00:58:17;;;;;;;;;;;;;;;18.42;68.00;101178.78;5098228;28;1858;-45
2021/06/03 01:00:44;;;;;;;;;;;;;;;18.39;67.74;101184.38;5115671;28;1978;-45
2021/06/03 01:03:14;;;;;;;;;;;;;;;18.41;68.00;101182.44;5099291;28;1423;-45
2021/06/03 01:05:47;;;;;;;;;;;;;;;18.37;68.12;101182.81;5101080;28;1018;-45
2021/06/03 01:08:15;;;;;;;;;;;;;;;18.41;68.10;101185.09;5096907;28;2033;-46
2021/06/03 01:10:49;;;;;;;;;;;;;;;18.39;67.85;101183.53;5105409;28;1650;-45
2021/06/03 01:13:23;;;;;;;;;;;;;;;18.35;67.97;101184.75;5108514;28;2003;-46
2021/06/03 01:15:52;;;;;;;;;;;;;;;18.44;68.25;101173.28;5104878;28;1776;-45
2021/06/03 01:18:19;;;;;;;;;;;;;;;18.49;68.77;101171.13;5099643;28;1716;-45
2021/06/03 01:20:58;;;;;;;;;;;;;;;18.48;69.10;101177.44;5107450;28;1983;-45
2021/06/03 01:23:28;;;;;;;;;;;;;;;18.50;69.88;101164.75;5110936;27;1721;-45
2021/06/03 01:26:09;;;;;;;;;;;;;;;18.49;70.39;101176.47;5107051;28;1742;-46
2021/06/03 01:28:36;;;;;;;;;;;;;;;18.53;69.69;101183.28;5100618;28;2000;-46
2021/06/03 01:31:03;;;;;;;;;;;;;;;18.52;70.03;101172.69;5103980;28;1483;-45
2021/06/03 01:33:30;;;;;;;;;;;;;;;18.48;70.32;101169.41;5109891;28;1642;-45
2021/06/03 01:35:58;;;;;;;;;;;;;;;18.49;69.81;101173.78;5110375;28;1576;-45
2021/06/03 01:38:26;;;;;;;;;;;;;;;18.49;69.88;101182.66;5113739;28;1394;-45
2021/06/03 01:43:36;;;;;;;;;;;;;;;18.50;69.61;101172.81;5112096;27;2315;-45
2021/06/03 01:46:02;;;;;;;;;;;;;;;18.50;69.69;101178.16;5112891;28;1526;-45
2021/06/03 01:48:31;;;;;;;;;;;;;;;18.47;69.91;101171.22;5114283;27;1936;-46
2021/06/03 01:53:43;;;;;;;;;;;;;;;18.46;69.84;101176.69;5063371;28;1847;-45
2021/06/03 01:56:13;;;;;;;;;;;;;;;18.46;70.01;101187.41;5063572;28;1639;-45
2021/06/03 01:58:43;;;;;;;;;;;;;;;18.47;70.01;101173.06;5070984;28;1811;-45
2021/06/03 02:01:09;;;;;;;;;;;;;;;18.47;69.62;101181.09;5077465;23;3621;-77
2021/06/03 02:03:37;;;;;;;;;;;;;;;18.50;69.59;101183.50;5071467;28;1501;-77
2021/06/03 02:06:06;;;;;;;;;;;;;;;18.49;69.40;101192.53;5059029;28;1457;-77
2021/06/03 02:08:33;;;;;;;;;;;;;;;18.50;69.80;101178.16;5075895;28;1747;-78
2021/06/03 02:11:02;;;;;;;;;;;;;;;18.48;69.64;101190.81;5069385;28;1517;-76
2021/06/03 02:13:31;;;;;;;;;;;;;;;18.47;69.84;101184.63;5070714;28;1594;-80
2021/06/03 02:16:02;;;;;;;;;;;;;;;18.44;69.59;101189.34;5073873;28;1620;-77
2021/06/03 02:18:30;;;;;;;;;;;;;;;18.47;69.25;101197.16;5071448;28;1565;-80
2021/06/03 02:20:58;;;;;;;;;;;;;;;18.44;68.70;101200.94;5072118;28;1967;-77
2021/06/03 02:23:26;;;;;;;;;;;;;;;18.48;69.00;101196.19;5067662;28;1595;-77
2021/06/03 02:25:55;;;;;;;;;;;;;;;18.47;68.78;101179.25;5056146;28;1720;-79
2021/06/03 02:28:21;;;;;;;;;;;;;;;18.51;68.97;101201.31;5061683;28;1359;-80
2021/06/03 02:30:50;;;;;;;;;;;;;;;18.48;69.31;101196.19;5080723;28;1399;-76
2021/06/03 02:33:18;;;;;;;;;;;;;;;18.44;69.54;101194.72;5077353;28;1391;-77
2021/06/03 02:35:45;;;;;;;;;;;;;;;18.44;68.97;101192.91;5076775;28;1318;-79
2021/06/03 02:38:12;;;;;;;;;;;;;;;18.46;69.03;101198.13;5082582;28;1540;-76
2021/06/03 02:40:39;;;;;;;;;;;;;;;18.48;68.81;101199.72;5096099;28;1910;-76
2021/06/03 02:43:05;;;;;;;;;;;;;;;18.49;68.63;101216.63;5098696;28;1565;-80
2021/06/03 02:45:34;;;;;;;;;;;;;;;18.45;68.89;101210.66;5095453;28;1370;-77
2021/06/03 02:48:01;;;;;;;;;;;;;;;18.46;68.73;101203.47;5074585;28;1528;-81
2021/06/03 02:50:29;;;;;;;;;;;;;;;18.45;68.86;101204.47;5081287;28;1194;-80
2021/06/03 02:52:55;;;;;;;;;;;;;;;18.44;68.77;101222.38;5088044;28;1301;-77
2021/06/03 02:55:23;;;;;;;;;;;;;;;18.44;68.64;101206.31;5079468;28;1571;-80
2021/06/03 02:57:49;;;;;;;;;;;;;;;18.48;68.91;101217.59;5086542;28;1546;-77
2021/06/03 03:00:17;;;;;;;;;;;;;;;18.46;68.75;101209.72;5081708;28;1906;-78
2021/06/03 03:02:43;;;;;;;;;;;;;;;18.47;68.77;101213.22;5095393;28;1773;-77
2021/06/03 03:05:10;;;;;;;;;;;;;;;18.43;68.75;101225.16;5081370;28;1644;-79
2021/06/03 03:07:39;;;;;;;;;;;;;;;18.45;68.50;101215.19;5089936;28;1462;-80
2021/06/03 03:10:06;;;;;;;;;;;;;;;18.43;68.99;101217.97;5082621;28;1521;-80
2021/06/03 03:12:33;;;;;;;;;;;;;;;18.46;68.69;101230.25;5082511;28;1138;-77
2021/06/03 03:15:01;;;;;;;;;;;;;;;18.47;68.68;101215.91;5087460;28;1724;-81
2021/06/03 03:17:27;;;;;;;;;;;;;;;18.44;68.55;101218.81;5085284;28;1763;-80
2021/06/03 03:19:53;;;;;;;;;;;;;;;18.43;68.80;101211.78;5086022;28;1981;-79
2021/06/03 03:22:19;;;;;;;;;;;;;;;18.48;68.60;101222.94;5091301;28;1361;-80
2021/06/03 03:24:48;;;;;;;;;;;;;;;18.44;68.39;101216.13;5084959;28;946;-80
2021/06/03 03:27:14;;;;;;;;;;;;;;;18.44;68.29;101221.50;5080662;28;1770;-77
2021/06/03 03:29:40;;;;;;;;;;;;;;;18.45;68.15;101212.50;5084227;28;1742;-77
2021/06/03 03:32:07;;;;;;;;;;;;;;;18.44;68.71;101225.03;5082114;28;1598;-75
2021/06/03 03:34:35;;;;;;;;;;;;;;;18.43;68.51;101235.88;5083727;28;1715;-77
2021/06/03 03:37:04;;;;;;;;;;;;;;;18.46;68.53;101238.28;5079144;28;1396;-81
2021/06/03 03:39:30;;;;;;;;;;;;;;;18.44;68.46;101242.91;5090160;22;3629;-46
2021/06/03 03:41:57;;;;;;;;;;;;;;;18.45;68.42;101244.63;5066213;28;1341;-46
2021/06/03 03:44:23;;;;;;;;;;;;;;;18.47;68.42;101242.69;5062724;28;1031;-45
2021/06/03 03:46:49;;;;;;;;;;;;;;;18.47;68.68;101258.75;5057469;28;1609;-46
2021/06/03 03:49:15;;;;;;;;;;;;;;;18.47;67.88;101251.56;5061291;28;1730;-46
2021/06/03 03:51:41;;;;;;;;;;;;;;;18.44;68.57;101259.88;5062961;28;1638;-46
2021/06/03 03:54:07;;;;;;;;;;;;;;;18.45;68.81;101264.22;5060121;28;1628;-46
2021/06/03 03:56:33;;;;;;;;;;;;;;;18.43;68.50;101257.28;5061857;28;1584;-46
2021/06/03 03:59:01;;;;;;;;;;;;;;;18.46;68.67;101262.41;5060745;28;1679;-46
2021/06/03 04:01:29;;;;;;;;;;;;;;;18.44;69.00;101269.69;5059313;28;1905;-46
2021/06/03 04:03:55;;;;;;;;;;;;;;;18.47;68.62;101269.47;5062123;28;1521;-46
2021/06/03 04:06:21;;;;;;;;;;;;;;;18.47;68.76;101264.13;5062477;28;1266;-46
2021/06/03 04:08:48;;;;;;;;;;;;;;;18.48;68.54;101265.81;5056295;28;1641;-46
2021/06/03 04:11:14;;;;;;;;;;;;;;;18.48;68.97;101265.81;5061752;28;1866;-46
2021/06/03 04:13:40;;;;;;;;;;;;;;;18.48;68.11;101266.69;5067053;28;1724;-46
2021/06/03 04:16:08;;;;;;;;;;;;;;;18.48;68.25;101257.78;5067933;28;1655;-46
2021/06/03 04:18:34;;;;;;;;;;;;;;;18.49;68.03;101254.97;5058985;28;1613;-46
2021/06/03 04:21:00;;;;;;;;;;;;;;;18.52;68.07;101258.38;5062584;28;1985;-46
2021/06/03 04:23:26;;;;;;;;;;;;;;;18.52;68.11;101256.56;5067266;28;1990;-46
2021/06/03 04:25:52;;;;;;;;;;;;;;;18.54;68.16;101268.00;5058319;28;1672;-46
2021/06/03 04:28:18;;;;;;;;;;;;;;;18.53;68.05;101254.75;5054555;28;1867;-47
2021/06/03 04:30:45;;;;;;;;;;;;;;;18.51;68.18;101260.22;5060436;28;1857;-46
2021/06/03 04:33:15;;;;;;;;;;;;;;;18.53;68.01;101273.50;5062501;28;1942;-46
2021/06/03 04:35:41;;;;;;;;;;;;;;;18.54;68.04;101269.84;5061556;28;1075;-46
2021/06/03 04:38:07;;;;;;;;;;;;;;;18.55;68.28;101277.75;5064667;28;2017;-47
2021/06/03 04:40:33;;;;;;;;;;;;;;;18.53;68.11;101266.31;5061636;28;1906;-46
2021/06/03 04:42:59;;;;;;;;;;;;;;;18.57;67.58;101269.59;5062890;28;1588;-46
2021/06/03 04:45:26;;;;;;;;;;;;;;;18.58;67.96;101273.97;5061788;28;1624;-46
2021/06/03 04:47:52;;;;;;;;;;;;;;;18.58;67.74;101266.81;5065893;28;1845;-46
2021/06/03 04:50:20;;;;;;;;;;;;;;;18.57;68.18;101274.97;5066927;28;1570;-46
2021/06/03 04:52:46;;;;;;;;;;;;;;;18.57;68.49;101274.97;5063375;28;1584;-46
2021/06/03 04:55:14;;;;;;;;;;;;;;;18.53;67.12;101266.31;5063223;28;1712;-46
2021/06/03 04:57:41;;;;;;;;;;;;;;;18.53;66.24;101287.72;5066223;28;1931;-46
2021/06/03 05:00:09;;;;;;;;;;;;;;;18.38;66.47;101299.63;5065758;28;1977;-46
2021/06/03 05:02:35;;;;;;;;;;;;;;;18.43;67.45;101282.25;5068386;28;2655;-45
2021/06/03 05:05:01;;;;;;;;;;;;;;;18.40;67.38;101293.22;5064263;28;1464;-46
2021/06/03 05:07:28;;;;;;;;;;;;;;;18.43;66.20;101294.78;5055045;28;1676;-46
2021/06/03 05:09:54;;;;;;;;;;;;;;;18.44;66.15;101296.47;5062368;28;1769;-46
2021/06/03 05:12:20;;;;;;;;;;;;;;;18.47;66.93;101298.94;5066877;28;1150;-46
2021/06/03 05:14:46;;;;;;;;;;;;;;;18.45;66.41;101298.19;5070311;28;1880;-46
2021/06/03 05:17:12;;;;;;;;;;;;;;;18.46;66.85;101302.56;5070136;28;1640;-46
2021/06/03 05:19:39;;;;;;;;;;;;;;;18.52;67.11;101304.75;5066112;28;1982;-46
2021/06/03 05:22:06;;;;;;;;;;;;;;;18.58;66.82;101301.63;5064134;28;1335;-46
2021/06/03 05:24:33;;;;;;;;;;;;;;;18.55;66.52;101307.22;5062809;28;1716;-46
2021/06/03 05:26:59;;;;;;;;;;;;;;;18.58;67.06;101308.78;5059456;28;1820;-46
2021/06/03 05:29:25;;;;;;;;;;;;;;;18.58;66.22;101309.66;5061198;28;1637;-46
2021/06/03 05:31:52;;;;;;;;;;;;;;;18.57;66.59;101317.81;5065635;28;2112;-46
2021/06/03 05:34:18;;;;;;;;;;;;;;;18.55;66.10;101315.25;5063901;28;1677;-46
2021/06/03 05:36:44;;;;;;;;;;;;;;;18.67;66.46;101321.47;5074195;28;1211;-46
2021/06/03 05:39:10;;;;;;;;;;;;;;;18.75;66.77;101321.72;5061790;28;1893;-46
2021/06/03 05:41:38;;;;;;;;;;;;;;;18.79;66.64;101314.31;5063525;28;1903;-46
2021/06/03 05:44:04;;;;;;;;;;;;;;;18.89;67.08;101320.69;5064778;28;1739;-46
2021/06/03 05:46:30;;;;;;;;;;;;;;;18.94;66.86;101331.03;5065175;28;1582;-46
2021/06/03 05:48:56;;;;;;;;;;;;;;;18.84;66.99;101325.53;5069620;28;1586;-47
2021/06/03 05:51:22;;;;;;;;;;;;;;;18.77;66.79;101335.00;5060922;28;1418;-46
2021/06/03 05:53:48;;;;;;;;;;;;;;;18.83;68.22;101334.56;5060730;28;1923;-46
2021/06/03 05:56:14;;;;;;;;;;;;;;;18.87;68.55;101336.03;5063168;28;1740;-46
2021/06/03 05:58:41;;;;;;;;;;;;;;;18.95;69.34;101335.44;5062719;28;1666;-49
2021/06/03 06:01:07;;;;;;;;;;;;;;;18.97;68.87;101342.34;5059822;28;1921;-47
2021/06/03 06:03:38;;;;;;;;;;;;;;;18.93;69.19;101340.06;5062606;28;1751;-46
2021/06/03 06:08:45;;;;;;;;;;;;;;;18.85;67.58;101337.97;5062953;28;2771;-47
2021/06/03 06:11:11;;;;;;;;;;;;;;;18.87;68.91;101352.09;5064944;28;1651;-46
2021/06/03 06:13:37;;;;;;;;;;;;;;;18.89;67.51;101358.19;5066549;28;1935;-46
2021/06/03 06:16:04;;;;;;;;;;;;;;;18.85;68.00;101362.09;5060750;28;1599;-46
2021/06/03 06:18:30;;;;;;;;;;;;;;;18.85;68.71;101370.13;5056670;28;1526;-46
2021/06/03 06:20:56;;;;;;;;;;;;;;;18.87;68.97;101370.84;5059796;28;1906;-46
2021/06/03 06:23:22;;;;;;;;;;;;;;;18.88;69.75;101365.38;5067902;28;1952;-46
2021/06/03 06:25:48;;;;;;;;;;;;;;;18.90;69.06;101380.47;5059392;28;1656;-46
2021/06/03 06:28:16;;;;;;;;;;;;;;;18.92;69.74;101371.38;5056286;28;1578;-45
2021/06/03 06:30:42;;;;;;;;;;;;;;;18.96;69.63;101367.47;5065402;28;1577;-46
2021/06/03 06:33:10;;;;;;;;;;;;;;;19.01;69.97;101375.97;5060289;28;1653;-46
2021/06/03 06:35:36;;;;;;;;;;;;;;;19.00;69.75;101371.63;5063468;28;1472;-46
2021/06/03 06:38:03;;;;;;;;;;;;;;;18.98;68.44;101378.94;5064882;28;1597;-45
2021/06/03 06:40:29;;;;;;;;;;;;;;;19.16;69.60;101399.88;5056565;28;1985;-46
2021/06/03 06:42:55;;;;;;;;;;;;;;;19.09;69.66;101388.78;5066147;28;1722;-46
2021/06/03 06:45:22;;;;;;;;;;;;;;;19.12;69.91;101395.72;5060859;28;1794;-45
2021/06/03 06:47:48;;;;;;;;;;;;;;;19.05;67.85;101392.69;5069284;28;1798;-46
2021/06/03 06:50:15;;;;;;;;;;;;;;;18.89;66.60;101387.66;5064858;28;1727;-46
2021/06/03 06:52:41;;;;;;;;;;;;;;;18.79;67.39;101400.06;5068924;28;1701;-47
2021/06/03 06:55:08;;;;;;;;;;;;;;;18.33;66.92;101401.75;5061827;28;1841;-46
2021/06/03 06:57:34;;;;;;;;;;;;;;;18.53;67.32;101402.91;5070971;28;1535;-46
2021/06/03 07:00:01;;;;;;;;;;;;;;;18.62;67.03;101406.69;5059383;28;1975;-46
2021/06/03 07:02:27;;;;;;;;;;;;;;;18.69;66.77;101407.94;5057093;28;1778;-46
2021/06/03 07:04:53;;;;;;;;;;;;;;;18.74;67.29;101408.44;5063045;28;1663;-46
2021/06/03 07:07:20;;;;;;;;;;;;;;;18.37;66.50;101418.44;5056320;28;2087;-46
2021/06/03 07:09:46;;;;;;;;;;;;;;;18.16;65.49;101411.03;5068803;28;1861;-46
2021/06/03 07:12:12;;;;;;;;;;;;;;;18.03;64.59;101426.28;5064058;28;1630;-46
2021/06/03 07:14:38;;;;;;;;;;;;;;;18.20;66.12;101415.16;5062655;28;1909;-46
2021/06/03 07:17:04;;;;;;;;;;;;;;;18.26;66.58;101422.78;5052904;28;1974;-46
2021/06/03 07:19:30;;;;;;;;;;;;;;;18.20;65.80;101423.19;5058733;28;1898;-46
2021/06/03 07:21:56;;;;;;;;;;;;;;;18.36;65.75;101424.75;5066364;28;1792;-46
2021/06/03 07:24:24;;;;;;;;;;;;;;;18.30;65.83;101418.03;5054957;28;1829;-46
2021/06/03 07:26:50;;;;;;;;;;;;;;;18.47;66.28;101435.50;5062277;28;1658;-46
2021/06/03 07:29:16;;;;;;;;;;;;;;;18.55;64.56;101430.41;5062903;28;1653;-46
2021/06/03 07:31:42;;;;;;;;;;;;;;;18.47;64.19;101424.78;5063446;28;1731;-46
2021/06/03 07:34:08;;;;;;;;;;;;;;;18.48;65.23;101427.38;5058457;28;1676;-46
2021/06/03 07:36:35;;;;;;;;;;;;;;;18.54;64.73;101425.19;5063935;28;1611;-46
2021/06/03 07:39:03;;;;;;;;;;;;;;;18.60;65.10;101436.31;5060391;28;1790;-46
2021/06/03 07:41:31;;;;;;;;;;;;;;;18.42;64.45;101432.31;5058233;28;1983;-46
2021/06/03 07:43:57;;;;;;;;;;;;;;;18.36;63.79;101428.25;5060488;28;1611;-46
2021/06/03 07:46:23;;;;;;;;;;;;;;;18.26;65.21;101427.25;5059995;28;1719;-47
2021/06/03 07:48:49;;;;;;;;;;;;;;;18.39;65.54;101437.91;5060909;28;1891;-47
2021/06/03 07:51:15;;;;;;;;;;;;;;;18.42;64.24;101432.31;5068521;28;1304;-46
2021/06/03 07:53:41;;;;;;;;;;;;;;;18.51;63.78;101426.28;5065376;28;1866;-46
2021/06/03 07:56:07;;;;;;;;;;;;;;;18.34;62.65;101440.91;5061973;28;1674;-47
2021/06/03 07:58:34;;;;;;;;;;;;;;;18.07;63.29;101441.16;5061587;28;1756;-46
2021/06/03 08:01:01;;;;;;;;;;;;;;;18.24;64.36;101442.56;5059782;28;1909;-46
2021/06/03 08:03:27;;;;;;;;;;;;;;;18.48;64.20;101445.25;5057916;28;1709;-47
2021/06/03 08:05:53;;;;;;;;;;;;;;;18.58;64.05;101445.41;5060179;28;1515;-46
2021/06/03 08:08:19;;;;;;;;;;;;;;;18.64;64.17;101447.59;5054602;28;2096;-47
2021/06/03 08:10:45;;;;;;;;;;;;;;;18.64;64.33;101444.94;5059089;28;1861;-47
2021/06/03 08:13:11;;;;;;;;;;;;;;;18.69;64.50;101448.97;5059194;28;1608;-46
2021/06/03 08:15:40;;;;;;;;;;;;;;;18.75;64.29;101455.69;5066184;28;1632;-46
2021/06/03 08:18:06;;;;;;;;;;;;;;;18.72;64.66;101452.38;5069166;28;1589;-46
2021/06/03 08:20:33;;;;;;;;;;;;;;;18.74;64.83;101453.13;5064632;28;1977;-48
2021/06/03 08:23:00;;;;;;;;;;;;;;;18.73;64.88;101462.16;5069928;28;2108;-47
2021/06/03 08:25:26;;;;;;;;;;;;;;;18.67;65.00;101456.28;5064511;28;1833;-47
2021/06/03 08:27:52;;;;;;;;;;;;;;;18.69;64.81;101467.72;5062588;28;1533;-47
2021/06/03 08:30:18;;;;;;;;;;;;;;;18.72;64.86;101465.78;5060929;28;1812;-47
2021/06/03 08:32:48;;;;;;;;;;;;;;;18.68;64.82;101455.31;5058205;28;1524;-46
2021/06/03 08:35:15;;;;;;;;;;;;;;;18.69;64.61;101470.41;5065977;28;1820;-47
2021/06/03 08:37:42;;;;;;;;;;;;;;;18.75;64.91;101470.94;5059285;28;1777;-47
2021/06/03 08:40:08;;;;;;;;;;;;;;;18.76;65.13;101483.34;5066292;28;1913;-47
2021/06/03 08:42:34;;;;;;;;;;;;;;;18.73;65.26;101472.88;5070106;28;1717;-47
2021/06/03 08:45:01;;;;;;;;;;;;;;;18.70;65.31;101465.91;5064602;28;1461;-46
2021/06/03 08:47:29;;;;;;;;;;;;;;;18.71;65.64;101475.66;5066889;28;2035;-46
2021/06/03 08:49:56;;;;;;;;;;;;;;;18.71;64.54;101464.09;5063208;28;1875;-45
2021/06/03 08:52:22;;;;;;;;;;;;;;;18.75;65.13;101478.97;5056397;28;1752;-47
2021/06/03 08:54:53;;;;;;;;;;;;;;;18.74;65.19;101479.91;5059854;28;1952;-47
2021/06/03 08:57:19;;;;;;;;;;;;;;;18.76;65.31;101484.22;5058311;28;1829;-47
2021/06/03 08:59:45;;;;;;;;;;;;;;;18.73;65.34;101488.94;5062278;28;2291;-47
2021/06/03 09:02:11;;;;;;;;;;;;;;;18.69;65.55;101489.16;5059509;28;1877;-46
2021/06/03 09:04:37;;;;;;;;;;;;;;;18.72;65.63;101488.09;5060183;28;1762;-47
2021/06/03 09:07:25;;;;;;;;;;;;;;;18.70;65.77;101484.66;5072345;28;1897;-47
2021/06/03 09:09:51;;;;;;;;;;;;;;;18.76;65.77;101494.06;5058369;28;1664;-47
2021/06/03 09:12:35;;;;;;;;;;;;;;;18.74;65.80;101490.63;5074392;28;2106;-46
2021/06/03 09:15:16;;;;;;;;;;;;;;;18.71;65.62;101493.56;5066637;28;1256;-46
2021/06/03 09:17:44;;;;;;;;;;;;;;;18.74;65.84;101498.66;5063372;28;965;-47
2021/06/03 09:20:11;;;;;;;;;;;;;;;18.68;65.66;101487.47;5065986;28;2074;-46
2021/06/03 09:22:39;;;;;;;;;;;;;;;18.64;65.58;101495.81;5054803;28;1825;-47
2021/06/03 09:25:23;;;;;;;;;;;;;;;18.58;65.66;101490.94;5069989;28;2198;-47
2021/06/03 09:27:49;;;;;;;;;;;;;;;18.58;64.91;101498.97;5063414;28;1511;-47
2021/06/03 09:30:16;;;;;;;;;;;;;;;18.52;65.30;101497.59;5064424;28;1633;-47
2021/06/03 09:32:51;;;;;;;;;;;;;;;18.57;65.63;101505.31;5070193;28;1314;-47
2021/06/03 09:35:17;;;;;;;;;;;;;;;18.57;65.49;101494.59;5074234;28;2040;-47
2021/06/03 09:37:44;;;;;;;;;;;;;;;18.61;65.67;101504.13;5068594;28;1814;-47
2021/06/03 09:40:19;;;;;;;;;;;;;;;18.55;65.39;101513.47;5062817;28;1910;-46
2021/06/03 09:43:04;;;;;;;;;;;;;;;18.46;65.71;101500.75;5070888;28;1390;-47
2021/06/03 09:45:51;;;;;;;;;;;;;;;18.52;65.79;101515.50;5068536;28;1421;-46
2021/06/03 09:48:32;;;;;;;;;;;;;;;18.54;65.89;101508.22;5066494;28;1783;-47
2021/06/03 09:51:13;;;;;;;;;;;;;;;18.61;65.83;101514.84;5061290;28;1878;-46
2021/06/03 09:53:57;;;;;;;;;;;;;;;18.64;66.09;101506.53;5058365;28;1889;-46
2021/06/03 09:56:24;;;;;;;;;;;;;;;18.63;64.79;101520.94;5064317;28;1615;-46
2021/06/03 09:58:50;;;;;;;;;;;;;;;18.69;65.30;101524.00;5065524;28;1704;-46
2021/06/03 10:01:36;;;;;;;;;;;;;;;18.65;65.52;101514.47;5062399;28;1902;-46
2021/06/03 10:04:02;;;;;;;;;;;;;;;18.73;65.77;101521.09;5066234;28;2093;-46
2021/06/03 10:06:28;;;;;;;;;;;;;;;18.72;65.08;101504.16;5060059;28;1659;-47
2021/06/03 10:08:54;;;;;;;;;;;;;;;18.71;65.30;101506.97;5076403;28;1785;-46
2021/06/03 10:11:34;;;;;;;;;;;;;;;18.73;64.82;101500.50;5068136;28;1586;-47
2021/06/03 10:14:12;;;;;;;;;;;;;;;18.73;65.04;101494.31;5060019;28;2115;-48
2021/06/03 10:16:38;;;;;;;;;;;;;;;18.71;65.30;101491.72;5063098;28;1897;-47
2021/06/03 10:19:17;;;;;;;;;;;;;;;18.69;65.14;101494.53;5066121;28;1604;-46
2021/06/03 10:21:44;;;;;;;;;;;;;;;18.71;64.95;101506.97;5062825;28;1987;-47
2021/06/03 10:24:10;;;;;;;;;;;;;;;18.73;64.92;101515.75;5058202;28;1884;-46
2021/06/03 10:26:51;;;;;;;;;;;;;;;18.72;64.97;101517.56;5060946;28;1810;-47
2021/06/03 10:29:18;;;;;;;;;;;;;;;18.67;65.12;101501.81;5056862;28;1496;-47
2021/06/03 10:31:44;;;;;;;;;;;;;;;18.71;64.80;101517.69;5063975;28;1587;-47
2021/06/03 10:34:11;;;;;;;;;;;;;;;18.80;64.44;101503.59;5059136;28;1386;-46
2021/06/03 10:36:37;;;;;;;;;;;;;;;18.75;64.18;101500.41;5062140;28;1378;-46
2021/06/03 10:39:04;;;;;;;;;;;;;;;18.73;64.18;101505.88;5057312;28;2063;-46
2021/06/03 10:41:30;;;;;;;;;;;;;;;18.71;64.52;101488.22;5060867;28;1906;-45
2021/06/03 10:43:57;;;;;;;;;;;;;;;18.69;64.39;101482.97;5063770;28;1481;-46
2021/06/03 10:46:25;;;;;;;;;;;;;;;18.73;64.29;101492.47;5064938;28;1522;-46
2021/06/03 10:48:51;;;;;;;;;;;;;;;18.73;64.20;101494.31;5064174;28;1775;-47
2021/06/03 10:51:17;;;;;;;;;;;;;;;18.74;64.55;101496.00;5067883;28;1528;-47
2021/06/03 10:53:44;;;;;;;;;;;;;;;18.86;64.66;101482.56;5061972;28;1786;-46
2021/06/03 10:56:11;;;;;;;;;;;;;;;18.90;64.68;101483.19;5059392;28;1687;-46
2021/06/03 10:58:38;;;;;;;;;;;;;;;18.86;65.16;101498.66;5058095;28;1927;-46
2021/06/03 11:01:05;;;;;;;;;;;;;;;18.86;64.72;101497.78;5069046;28;1981;-46
2021/06/03 11:03:39;;;;;;;;;;;;;;;18.84;64.55;101502.41;5068570;28;1445;-46
2021/06/03 11:06:06;;;;;;;;;;;;;;;18.86;65.01;101498.66;5071186;28;1169;-46
2021/06/03 11:08:33;;;;;;;;;;;;;;;18.92;65.28;101478.56;5068353;28;1492;-46
2021/06/03 11:11:17;;;;;;;;;;;;;;;18.94;65.19;101490.03;5060139;28;1855;-46
2021/06/03 11:13:58;;;;;;;;;;;;;;;19.02;65.09;101492.09;5066165;28;1535;-46
2021/06/03 11:16:24;;;;;;;;;;;;;;;18.99;65.83;101495.88;5070166;28;1844;-46
2021/06/03 11:19:11;;;;;;;;;;;;;;;18.98;65.75;101487.94;5067689;28;1542;-46
2021/06/03 11:21:55;;;;;;;;;;;;;;;18.98;65.79;101482.56;5062805;28;1979;-46
2021/06/03 11:24:39;;;;;;;;;;;;;;;18.98;65.80;101487.94;5064484;28;1847;-46
2021/06/03 11:27:08;;;;;;;;;;;;;;;18.97;65.70;101481.72;5059883;28;1970;-46
2021/06/03 11:29:34;;;;;;;;;;;;;;;18.97;65.89;101494.28;5063523;28;1948;-46
2021/06/03 11:32:18;;;;;;;;;;;;;;;18.96;65.95;101490.75;5062331;28;1831;-46
2021/06/03 11:34:45;;;;;;;;;;;;;;;18.98;66.35;101494.19;5063225;28;1965;-45
2021/06/03 11:37:14;;;;;;;;;;;;;;;18.99;65.97;101489.66;5073233;28;1586;-47
2021/06/03 11:39:41;;;;;;;;;;;;;;;18.94;66.16;101476.63;5059004;28;1862;-46
2021/06/03 11:42:18;;;;;;;;;;;;;;;18.96;66.42;101485.41;5060567;28;1905;-46
2021/06/03 11:44:59;;;;;;;;;;;;;;;18.96;66.39;101481.84;5069083;28;1775;-46
2021/06/03 11:47:25;;;;;;;;;;;;;;;18.94;66.52;101478.44;5062013;28;1918;-46
2021/06/03 11:49:51;;;;;;;;;;;;;;;18.99;66.25;101481.63;5063161;28;1674;-46
2021/06/03 11:52:19;;;;;;;;;;;;;;;18.95;66.98;101478.31;5070111;28;1648;-46
2021/06/03 11:54:52;;;;;;;;;;;;;;;18.98;66.92;101475.41;5064354;28;1027;-46
2021/06/03 11:57:18;;;;;;;;;;;;;;;18.99;66.51;101462.84;5063500;28;1781;-46
2021/06/03 11:59:53;;;;;;;;;;;;;;;18.99;67.22;101474.44;5063389;28;1642;-46
2021/06/03 12:02:29;;;;;;;;;;;;;;;19.01;66.84;101472.47;5063966;28;1967;-46
2021/06/03 12:05:14;;;;;;;;;;;;;;;18.97;66.86;101471.00;5062822;28;1617;-46
2021/06/03 12:07:42;;;;;;;;;;;;;;;18.99;66.85;101473.56;5064625;28;1507;-46
2021/06/03 12:10:09;;;;;;;;;;;;;;;18.98;66.90;101469.19;5068344;28;1357;-46
2021/06/03 12:12:35;;;;;;;;;;;;;;;18.99;66.95;101469.06;5059634;28;1748;-47
2021/06/03 12:15:01;;;;;;;;;;;;;;;18.97;66.74;101468.34;5064496;28;1483;-46
2021/06/03 12:17:27;;;;;;;;;;;;;;;19.00;67.22;101470.78;5061577;28;1755;-46
2021/06/03 12:19:53;;;;;;;;;;;;;;;19.01;67.07;101483.19;5065159;28;1403;-46
2021/06/03 12:22:20;;;;;;;;;;;;;;;19.01;67.18;101477.84;5068299;28;1975;-46
2021/06/03 12:24:48;;;;;;;;;;;;;;;19.02;67.24;101479.56;5068182;28;1659;-45
2021/06/03 12:27:19;;;;;;;;;;;;;;;19.04;67.38;101485.66;5063931;28;1539;-46
2021/06/03 12:29:45;;;;;;;;;;;;;;;19.04;66.90;101479.44;5054818;28;1807;-46
2021/06/03 12:32:12;;;;;;;;;;;;;;;19.12;67.21;101482.41;5061029;28;1733;-45
2021/06/03 12:34:38;;;;;;;;;;;;;;;19.18;67.24;101483.72;5058998;28;1577;-45
2021/06/03 12:37:17;;;;;;;;;;;;;;;19.18;67.02;101486.41;5062498;28;1726;-46
2021/06/03 12:39:43;;;;;;;;;;;;;;;19.22;67.06;101485.22;5060042;28;1562;-46
2021/06/03 12:42:10;;;;;;;;;;;;;;;19.17;67.06;101487.38;5053678;28;1915;-46
2021/06/03 12:44:36;;;;;;;;;;;;;;;19.13;67.32;101480.56;5054242;28;1513;-47
2021/06/03 12:47:06;;;;;;;;;;;;;;;19.19;67.21;101490.81;5065668;28;1523;-47
2021/06/03 12:49:34;;;;;;;;;;;;;;;19.14;67.20;101471.53;5057136;28;1409;-47
2021/06/03 12:52:01;;;;;;;;;;;;;;;19.15;67.25;101483.97;5076956;28;1142;-46
2021/06/03 12:54:28;;;;;;;;;;;;;;;19.08;67.42;101473.72;5059591;28;1836;-47
2021/06/03 12:56:58;;;;;;;;;;;;;;;19.06;68.09;101472.16;5059403;28;1627;-47
2021/06/03 12:59:27;;;;;;;;;;;;;;;19.08;68.11;101486.28;5056937;28;1802;-47
2021/06/03 13:01:54;;;;;;;;;;;;;;;19.10;68.00;101487.03;5061836;28;1997;-46